createdAt,value
2023-04-18T00:08:11.025Z,12.26
2023-04-18T00:23:14.285Z,12.09
2023-04-18T00:38:17.421Z,11.95
2023-04-18T00:53:20.453Z,11.92
2023-04-18T01:08:24.694Z,11.89
2023-04-18T01:23:27.788Z,11.96
2023-04-18T01:38:30.969Z,11.97
2023-04-18T01:53:34.115Z,12.05
2023-04-18T02:08:37.433Z,12.14
2023-04-18T02:23:43.679Z,12.04
2023-04-18T02:38:46.728Z,11.50
2023-04-18T02:53:52.104Z,11.37
2023-04-18T03:08:56.250Z,11.27
2023-04-18T03:24:00.758Z,11.29
2023-04-18T03:39:04.091Z,11.31
2023-04-18T03:54:07.215Z,11.33
2023-04-18T04:09:10.502Z,11.36
2023-04-18T04:24:15.316Z,11.44
2023-04-18T04:39:21.915Z,11.49
2023-04-18T04:54:43.668Z,11.67
2023-04-18T05:09:49.839Z,11.83
2023-04-18T05:24:52.982Z,12.18
2023-04-18T05:39:57.050Z,12.63
2023-04-18T05:55:02.125Z,13.15
2023-04-18T06:10:09.448Z,13.63
2023-04-18T06:25:12.731Z,14.23
2023-04-18T06:40:15.977Z,15.04
2023-04-18T06:55:19.141Z,15.55
2023-04-18T07:10:22.240Z,16.31
2023-04-18T07:25:25.377Z,16.89
2023-04-18T07:40:28.568Z,16.99
2023-04-18T07:55:32.006Z,16.90
2023-04-18T08:10:35.834Z,17.17
2023-04-18T08:25:38.904Z,17.57
2023-04-18T08:40:43.674Z,18.01
2023-04-18T08:55:48.181Z,18.49
2023-04-18T09:10:51.382Z,18.49
2023-04-18T09:25:54.787Z,18.80
2023-04-18T09:41:11.567Z,18.98
2023-04-18T09:56:26.309Z,19.65
2023-04-18T10:11:31.618Z,19.95
2023-04-18T10:26:47.547Z,20.91
2023-04-18T10:41:51.820Z,21.36
2023-04-18T10:56:56.998Z,21.38
2023-04-18T11:15:22.241Z,21.87
2023-04-18T11:30:26.237Z,22.06
2023-04-18T11:45:29.773Z,22.31
2023-04-18T12:00:42.086Z,23.46
2023-04-18T12:15:46.943Z,24.08
2023-04-18T12:30:50.247Z,24.74
2023-04-18T12:45:53.547Z,24.04
2023-04-18T13:00:57.917Z,25.64
2023-04-18T13:16:01.650Z,23.79
2023-04-18T13:31:04.935Z,22.17
2023-04-18T13:46:08.124Z,22.51
2023-04-18T14:01:12.221Z,23.74
2023-04-18T14:16:15.682Z,23.53
2023-04-18T14:31:18.932Z,24.33
2023-04-18T14:46:22.264Z,24.31
2023-04-18T15:01:25.917Z,24.06
2023-04-18T15:16:29.228Z,21.73
2023-04-18T15:31:32.676Z,21.15
2023-04-18T15:46:36.862Z,20.37
2023-04-18T16:01:40.924Z,19.27
2023-04-18T16:16:44.434Z,18.61
2023-04-18T16:31:48.334Z,17.94
2023-04-18T16:46:52.138Z,17.53
2023-04-18T17:01:55.742Z,17.32
2023-04-18T17:16:59.054Z,17.02
2023-04-18T17:32:02.496Z,16.79
2023-04-18T17:47:08.973Z,16.61
2023-04-18T18:02:12.376Z,16.37
2023-04-18T18:17:15.633Z,16.12
2023-04-18T18:32:19.118Z,15.79
2023-04-18T18:47:22.469Z,15.49
2023-04-18T19:02:27.468Z,15.25
2023-04-18T19:17:31.508Z,14.91
2023-04-18T19:32:34.868Z,14.54
2023-04-18T19:47:38.800Z,14.32
2023-04-18T20:02:42.623Z,14.20
2023-04-18T20:17:46.057Z,13.91
2023-04-18T20:32:49.521Z,13.41
2023-04-18T20:47:53.083Z,12.93
2023-04-18T21:02:56.583Z,12.50
2023-04-18T21:18:00.137Z,11.99
2023-04-18T21:33:03.827Z,11.53
2023-04-18T21:48:09.280Z,11.18
2023-04-18T22:03:12.558Z,10.88
2023-04-18T22:18:15.978Z,10.65
2023-04-18T22:33:19.178Z,10.49
2023-04-18T22:48:22.628Z,10.19
2023-04-18T23:03:25.894Z,9.93
2023-04-18T23:18:30.238Z,9.69
2023-04-18T23:33:33.638Z,9.56
2023-04-18T23:48:36.691Z,9.42
